createdAt,value
2018-04-12T00:00:18.239Z,6.60
2018-04-12T00:02:45.692Z,5.77
2018-04-12T00:05:13.130Z,6.80
2018-04-12T00:07:41.370Z,7.73
2018-04-12T00:10:09.223Z,7.53
2018-04-12T00:12:36.669Z,7.37
2018-04-12T00:15:04.124Z,8.00
2018-04-12T00:17:31.569Z,7.73
2018-04-12T00:19:59.439Z,8.20
2018-04-12T00:22:26.893Z,8.90
2018-04-12T00:24:54.357Z,8.67
2018-04-12T00:27:21.816Z,9.80
2018-04-12T00:29:49.274Z,9.03
2018-04-12T00:32:16.724Z,9.17
2018-04-12T00:34:44.183Z,8.63
2018-04-12T00:37:11.641Z,9.10
2018-04-12T00:39:39.093Z,9.03
2018-04-12T00:42:07.088Z,9.97
2018-04-12T00:44:34.948Z,9.17
2018-04-12T00:47:02.406Z,9.63
2018-04-12T00:49:29.872Z,9.67
2018-04-12T00:51:57.321Z,9.60
2018-04-12T00:54:24.779Z,9.83
2018-04-12T00:56:52.265Z,10.90
2018-04-12T00:59:19.708Z,10.83
2018-04-12T01:01:48.068Z,10.43
2018-04-12T01:04:15.528Z,11.07
2018-04-12T01:06:43.804Z,10.73
2018-04-12T01:09:11.286Z,11.80
2018-04-12T01:11:38.737Z,11.40
2018-04-12T01:14:06.196Z,11.30
2018-04-12T01:16:33.644Z,11.87
2018-04-12T01:19:01.120Z,12.70
2018-04-12T01:21:28.563Z,12.40
2018-04-12T01:23:56.023Z,13.23
2018-04-12T01:26:23.480Z,12.40
2018-04-12T01:28:51.627Z,12.77
2018-04-12T01:31:19.086Z,13.93
2018-04-12T01:33:46.816Z,13.73
2018-04-12T01:36:14.272Z,14.77
2018-04-12T01:38:41.725Z,14.60
2018-04-12T01:41:09.185Z,16.37
2018-04-12T01:43:36.638Z,15.73
2018-04-12T01:46:04.106Z,15.67
2018-04-12T01:48:31.553Z,16.73
2018-04-12T01:50:59.024Z,17.10
2018-04-12T01:53:26.484Z,16.97
2018-04-12T01:55:54.200Z,17.50
2018-04-12T01:58:22.013Z,17.13
2018-04-12T02:00:49.466Z,17.87
2018-04-12T02:03:16.930Z,17.77
2018-04-12T02:05:44.433Z,18.60
2018-04-12T02:08:11.891Z,19.77
2018-04-12T02:10:39.360Z,20.83
2018-04-12T02:13:08.142Z,21.07
2018-04-12T02:15:35.604Z,21.30
2018-04-12T02:18:03.825Z,22.47
2018-04-12T02:20:31.296Z,22.60
2018-04-12T02:22:59.460Z,24.27
2018-04-12T02:25:27.457Z,24.73
2018-04-12T02:27:55.232Z,25.70
2018-04-12T02:30:22.696Z,26.43
2018-04-12T02:32:50.144Z,26.20
2018-04-12T02:35:17.616Z,27.80
2018-04-12T02:37:45.866Z,28.07
2018-04-12T02:40:13.293Z,29.30
2018-04-12T02:42:41.332Z,28.23
2018-04-12T02:45:09.568Z,27.73
2018-04-12T02:47:37.025Z,28.83
2018-04-12T02:50:05.352Z,30.80
2018-04-12T02:52:33.488Z,30.80
2018-04-12T02:55:00.943Z,31.47
2018-04-12T02:57:29.334Z,32.80
2018-04-12T02:59:57.552Z,32.53
2018-04-12T03:02:25.012Z,34.20
2018-04-12T03:04:52.488Z,33.67
2018-04-12T03:07:19.950Z,34.07
2018-04-12T03:09:47.409Z,34.87
2018-04-12T03:12:14.876Z,34.00
2018-04-12T03:14:42.811Z,33.30
2018-04-12T03:17:11.003Z,34.13
2018-04-12T03:19:38.569Z,35.13
2018-04-12T03:22:06.019Z,33.90
2018-04-12T03:24:33.521Z,33.10
2018-04-12T03:27:00.974Z,35.77
2018-04-12T03:29:29.193Z,33.87
2018-04-12T03:31:57.184Z,35.07
2018-04-12T03:34:24.647Z,33.00
2018-04-12T03:36:52.116Z,34.00
2018-04-12T03:39:19.570Z,34.63
2018-04-12T03:41:47.448Z,33.73
2018-04-12T03:44:15.669Z,33.53
2018-04-12T03:46:43.130Z,33.97
2018-04-12T03:49:10.630Z,35.17
2018-04-12T03:51:38.161Z,34.57
2018-04-12T03:54:08.892Z,34.50
2018-04-12T03:56:36.935Z,32.57
2018-04-12T03:59:05.068Z,33.00
2018-04-12T04:01:33.861Z,32.87
2018-04-12T04:04:02.093Z,34.87
2018-04-12T04:06:31.064Z,34.47
2018-04-12T04:08:58.564Z,32.23
2018-04-12T04:11:26.019Z,34.97
2018-04-12T04:13:53.475Z,35.07
2018-04-12T04:16:32.851Z,33.87
2018-04-12T04:19:12.237Z,34.60
2018-04-12T04:21:40.270Z,34.97
2018-04-12T04:24:07.735Z,35.50
2018-04-12T04:26:35.192Z,34.20
2018-04-12T04:29:03.079Z,34.77
2018-04-12T04:31:30.527Z,36.37
2018-04-12T04:33:58.004Z,35.03
2018-04-12T04:36:25.648Z,35.03
2018-04-12T04:38:53.093Z,34.73
2018-04-12T04:41:20.594Z,35.37
2018-04-12T04:43:48.052Z,36.57
2018-04-12T04:46:15.508Z,35.53
2018-04-12T04:48:43.007Z,38.07
2018-04-12T04:51:12.953Z,36.40
2018-04-12T04:53:40.411Z,35.97
2018-04-12T04:56:07.865Z,35.93
2018-04-12T04:58:35.319Z,37.47
2018-04-12T05:01:02.806Z,37.47
2018-04-12T05:03:30.308Z,36.27
2018-04-12T05:05:57.762Z,36.27
2018-04-12T05:08:25.225Z,36.53
2018-04-12T05:10:52.672Z,36.33
2018-04-12T05:13:20.179Z,36.30
2018-04-12T05:15:48.102Z,36.87
2018-04-12T05:18:15.613Z,35.87
2018-04-12T05:20:44.144Z,35.13
2018-04-12T05:23:12.032Z,34.83
2018-04-12T05:25:39.512Z,35.77
2018-04-12T05:28:06.973Z,34.20
2018-04-12T05:30:34.696Z,35.07
2018-04-12T05:33:02.191Z,34.07
2018-04-12T05:35:30.512Z,35.80
2018-04-12T05:37:57.971Z,34.40
2018-04-12T05:40:26.277Z,35.23
2018-04-12T05:42:53.752Z,33.10
2018-04-12T05:45:21.204Z,34.40
2018-04-12T05:47:48.668Z,32.53
2018-04-12T05:50:16.139Z,33.47
2018-04-12T05:52:43.591Z,33.47
2018-04-12T05:55:11.152Z,34.50
2018-04-12T05:57:38.609Z,32.77
2018-04-12T06:00:06.063Z,32.40
2018-04-12T06:02:33.611Z,33.07
2018-04-12T06:05:01.064Z,31.20
2018-04-12T06:07:28.975Z,32.27
2018-04-12T06:09:57.325Z,32.73
2018-04-12T06:12:24.774Z,32.10
2018-04-12T06:14:52.240Z,33.77
2018-04-12T06:17:20.244Z,31.57
2018-04-12T06:19:48.907Z,32.50
2018-04-12T06:22:16.357Z,30.93
2018-04-12T06:24:44.232Z,30.80
2018-04-12T06:27:11.675Z,30.73
2018-04-12T06:29:39.851Z,28.23
2018-04-12T06:32:07.400Z,28.60
2018-04-12T06:34:34.860Z,30.37
2018-04-12T06:37:02.396Z,29.13
2018-04-12T06:39:29.976Z,29.10
2018-04-12T06:41:58.520Z,29.63
2018-04-12T06:44:26.590Z,30.00
2018-04-12T06:46:55.491Z,29.73
2018-04-12T06:49:23.040Z,30.57
2018-04-12T06:51:50.494Z,29.10
2018-04-12T06:54:18.057Z,28.70
2018-04-12T06:56:45.601Z,28.30
2018-04-12T06:59:13.173Z,29.25
2018-04-12T07:01:40.634Z,27.40
2018-04-12T07:04:10.683Z,26.98
2018-04-12T07:06:38.136Z,25.65
2018-04-12T07:09:05.599Z,25.90
2018-04-12T07:11:33.089Z,25.25
2018-04-12T07:14:01.328Z,26.05
2018-04-12T07:16:29.311Z,25.67
2018-04-12T07:18:58.501Z,25.08
2018-04-12T07:21:26.136Z,25.27
2018-04-12T07:23:53.596Z,24.45
2018-04-12T07:26:21.069Z,24.08
2018-04-12T07:28:48.553Z,22.95
2018-04-12T07:31:16.808Z,22.77
2018-04-12T07:33:44.820Z,23.15
2018-04-12T07:36:12.669Z,23.45
2018-04-12T07:38:41.531Z,21.60
2018-04-12T07:41:11.552Z,20.17
2018-04-12T07:43:39.077Z,20.48
2018-04-12T07:46:07.252Z,20.30
2018-04-12T07:48:34.725Z,19.42
2018-04-12T07:51:02.292Z,22.30
2018-04-12T07:53:29.784Z,21.02
2018-04-12T07:55:58.032Z,18.67
2018-04-12T07:58:25.732Z,18.08
2018-04-12T08:00:53.201Z,20.40
2018-04-12T08:03:20.672Z,19.35
2018-04-12T08:05:48.129Z,18.85
2018-04-12T08:08:15.948Z,18.60
2018-04-12T08:10:44.036Z,15.75
2018-04-12T08:13:12.262Z,16.10
2018-04-12T08:15:39.712Z,15.30
2018-04-12T08:18:07.177Z,15.80
2018-04-12T08:20:34.764Z,15.25
2018-04-12T08:23:02.232Z,13.35
2018-04-12T08:25:31.072Z,13.73
2018-04-12T08:27:58.953Z,15.07
2018-04-12T08:30:26.978Z,15.07
2018-04-12T08:32:54.447Z,14.30
2018-04-12T08:35:21.949Z,13.80
2018-04-12T08:37:50.003Z,13.85
2018-04-12T08:40:17.466Z,12.82
2018-04-12T08:42:44.924Z,11.68
2018-04-12T08:45:12.390Z,11.00
2018-04-12T08:47:39.941Z,11.93
2018-04-12T08:50:10.211Z,10.07
2018-04-12T08:52:44.262Z,9.77
2018-04-12T08:55:11.720Z,8.70
2018-04-12T08:57:39.176Z,8.65
2018-04-12T09:00:06.642Z,9.27
2018-04-12T09:02:34.092Z,8.63
2018-04-12T09:05:01.556Z,7.12
2018-04-12T09:07:29.010Z,6.65
2018-04-12T09:09:56.463Z,6.28
2018-04-12T09:12:23.911Z,6.55
2018-04-12T09:14:52.027Z,5.00
2018-04-12T09:17:20.250Z,5.60
2018-04-12T09:19:47.703Z,5.05
2018-04-12T09:22:15.209Z,5.03
2018-04-12T09:24:43.565Z,4.43
2018-04-12T09:27:11.139Z,4.87
2018-04-12T09:29:38.591Z,4.50
2018-04-12T09:32:06.487Z,4.12
2018-04-12T09:34:35.447Z,3.78
2018-04-12T09:37:02.899Z,3.70
2018-04-12T09:39:31.241Z,3.50
2018-04-12T09:41:58.683Z,4.15
2018-04-12T09:44:28.648Z,3.45
2018-04-12T09:46:56.107Z,3.45
2018-04-12T09:49:23.630Z,3.12
2018-04-12T09:51:51.029Z,3.12
2018-04-12T09:54:18.486Z,4.00
2018-04-12T09:56:45.951Z,3.40
2018-04-12T09:59:13.391Z,3.92
2018-04-12T10:04:52.059Z,3.65
2018-04-12T10:07:20.896Z,3.92
2018-04-12T10:09:48.358Z,4.00
2018-04-12T10:12:15.843Z,3.85
2018-04-12T10:14:43.400Z,4.30
2018-04-12T10:17:11.273Z,4.25
2018-04-12T10:19:38.824Z,4.47
2018-04-12T10:22:07.075Z,4.05
2018-04-12T10:24:35.580Z,4.30
2018-04-12T10:27:03.043Z,4.15
2018-04-12T10:29:31.012Z,4.25
2018-04-12T10:31:58.470Z,4.75
2018-04-12T10:34:25.937Z,5.28
2018-04-12T10:36:53.396Z,6.05
2018-04-12T10:39:21.439Z,5.82
2018-04-12T10:41:48.899Z,5.85
2018-04-12T10:44:16.783Z,6.28
2018-04-12T10:46:44.256Z,6.10
2018-04-12T10:49:11.700Z,6.62
2018-04-12T10:51:39.155Z,7.18
2018-04-12T10:54:06.785Z,7.80
2018-04-12T10:56:34.786Z,7.97
2018-04-12T10:59:02.447Z,7.57
2018-04-12T11:01:29.900Z,9.30
2018-04-12T11:03:57.384Z,8.13
2018-04-12T11:06:25.606Z,8.38
2018-04-12T11:08:53.484Z,8.43
2018-04-12T11:11:20.941Z,9.13
2018-04-12T11:13:48.417Z,8.75
2018-04-12T11:16:15.873Z,8.95
2018-04-12T11:18:43.868Z,8.60
2018-04-12T11:21:11.785Z,9.88
2018-04-12T11:23:39.461Z,9.65
2018-04-12T11:26:07.931Z,10.23
2018-04-12T11:28:35.512Z,10.77
2018-04-12T11:31:03.261Z,12.20
2018-04-12T11:33:30.727Z,11.85
2018-04-12T11:35:58.197Z,11.55
2018-04-12T11:38:25.651Z,12.07
2018-04-12T11:40:54.431Z,11.12
2018-04-12T11:43:22.121Z,10.98
2018-04-12T11:45:49.584Z,11.55
2018-04-12T11:48:17.065Z,11.18
2018-04-12T11:50:44.928Z,11.10
2018-04-12T11:53:12.629Z,11.38
2018-04-12T11:55:40.323Z,10.98
2018-04-12T11:58:08.540Z,10.85
2018-04-12T12:00:36.029Z,11.73
2018-04-12T12:03:03.484Z,11.55
2018-04-12T12:05:30.944Z,12.65
2018-04-12T12:07:58.445Z,11.55
2018-04-12T12:10:25.905Z,12.00
2018-04-12T12:12:53.474Z,13.02
2018-04-12T12:15:20.946Z,11.40
2018-04-12T12:17:48.445Z,11.98
2018-04-12T12:20:15.892Z,12.77
2018-04-12T12:22:44.512Z,10.35
2018-04-12T12:25:12.750Z,10.73
2018-04-12T12:27:40.272Z,8.93
2018-04-12T12:30:07.724Z,9.68
2018-04-12T12:32:35.179Z,11.45
2018-04-12T12:35:02.641Z,10.45
2018-04-12T12:37:30.103Z,9.85
2018-04-12T12:39:57.612Z,10.85
2018-04-12T12:42:25.835Z,11.27
2018-04-12T12:44:53.422Z,10.38
2018-04-12T12:47:20.983Z,10.10
2018-04-12T12:49:48.594Z,9.43
2018-04-12T12:52:16.048Z,9.60
2018-04-12T12:54:44.362Z,9.70
2018-04-12T12:57:11.820Z,8.80
2018-04-12T12:59:40.016Z,7.47
2018-04-12T13:02:07.596Z,9.38
2018-04-12T13:04:35.811Z,8.07
2018-04-12T13:07:03.304Z,8.20
2018-04-12T13:09:32.360Z,7.45
2018-04-12T13:12:00.632Z,7.10
2018-04-12T13:14:28.497Z,7.35
2018-04-12T13:16:56.380Z,7.78
2018-04-12T13:19:23.838Z,7.10
2018-04-12T13:21:52.547Z,7.03
2018-04-12T13:24:20.009Z,6.43
2018-04-12T13:26:47.456Z,6.68
2018-04-12T13:29:14.916Z,6.05
2018-04-12T13:31:43.881Z,7.53
2018-04-12T13:34:11.339Z,6.45
2018-04-12T13:36:38.787Z,6.37
2018-04-12T13:39:06.342Z,6.25
2018-04-12T13:41:33.880Z,5.80
2018-04-12T13:44:01.395Z,6.47
2018-04-12T13:46:28.952Z,6.85
2018-04-12T13:48:59.041Z,6.60
2018-04-12T13:51:26.491Z,7.12
2018-04-12T13:53:54.871Z,7.30
2018-04-12T13:56:22.336Z,8.82
2018-04-12T13:58:49.791Z,8.13
2018-04-12T14:01:17.244Z,8.63
2018-04-12T14:03:44.697Z,7.70
2018-04-12T14:06:12.513Z,8.10
2018-04-12T14:08:40.391Z,9.82
2018-04-12T14:11:08.707Z,8.98
2018-04-12T14:13:36.205Z,10.52
2018-04-12T14:16:03.659Z,10.10
2018-04-12T14:18:32.917Z,9.68
2018-04-12T14:21:01.184Z,9.32
2018-04-12T14:23:28.636Z,8.65
2018-04-12T14:25:56.679Z,9.23
2018-04-12T14:28:24.146Z,10.13
2018-04-12T14:30:53.176Z,9.57
2018-04-12T14:33:20.651Z,8.65
2018-04-12T14:35:48.124Z,10.10
2018-04-12T14:38:15.575Z,9.45
2018-04-12T14:40:43.102Z,10.45
2018-04-12T14:43:10.549Z,9.63
2018-04-12T14:45:38.369Z,9.48
2018-04-12T14:48:06.093Z,9.73
2018-04-12T14:50:33.553Z,10.20
2018-04-12T14:53:01.104Z,10.45
2018-04-12T14:55:29.112Z,9.77
2018-04-12T14:57:56.572Z,11.20
2018-04-12T15:00:24.132Z,10.98
2018-04-12T15:02:52.368Z,10.00
2018-04-12T15:05:20.641Z,10.25
2018-04-12T15:07:48.141Z,9.82
2018-04-12T15:10:15.596Z,11.57
2018-04-12T15:12:43.068Z,9.40
2018-04-12T15:15:11.055Z,10.60
2018-04-12T15:17:39.415Z,10.18
2018-04-12T15:20:07.740Z,8.80
2018-04-12T15:22:36.034Z,9.80
2018-04-12T15:25:03.495Z,9.60
2018-04-12T15:27:31.336Z,8.98
2018-04-12T15:29:58.792Z,9.38
2018-04-12T15:32:26.283Z,8.63
2018-04-12T15:34:53.753Z,9.13
2018-04-12T15:37:21.201Z,9.57
2018-04-12T15:39:48.666Z,10.93
2018-04-12T15:42:16.223Z,10.25
2018-04-12T15:44:43.843Z,11.27
2018-04-12T15:47:11.344Z,11.70
2018-04-12T15:49:38.892Z,9.60
2018-04-12T15:52:06.360Z,10.18
2018-04-12T15:54:33.977Z,9.05
2018-04-12T15:57:01.468Z,8.80
2018-04-12T15:59:29.523Z,10.68
2018-04-12T16:01:57.303Z,8.88
2018-04-12T16:04:25.113Z,9.90
2018-04-12T16:06:55.153Z,8.02
2018-04-12T16:09:23.144Z,8.02
2018-04-12T16:11:50.679Z,10.63
2018-04-12T16:14:18.728Z,10.23
2018-04-12T16:16:46.191Z,10.63
2018-04-12T16:19:14.117Z,10.13
2018-04-12T16:21:41.564Z,9.07
2018-04-12T16:24:10.013Z,10.13
2018-04-12T16:26:41.624Z,9.68
2018-04-12T16:29:09.300Z,9.30
2018-04-12T16:31:38.364Z,10.20
2018-04-12T16:34:05.824Z,9.88
2018-04-12T16:36:33.280Z,9.48
2018-04-12T16:39:00.841Z,10.65
2018-04-12T16:41:28.287Z,9.10
2018-04-12T16:43:56.609Z,10.13
2018-04-12T16:46:24.124Z,10.82
2018-04-12T16:48:52.400Z,8.63
2018-04-12T16:51:20.532Z,9.88
2018-04-12T16:53:48.000Z,10.60
2018-04-12T16:56:15.457Z,10.93
2018-04-12T16:58:43.495Z,8.80
2018-04-12T17:01:11.746Z,10.38
2018-04-12T17:03:39.247Z,10.50
2018-04-12T17:06:06.677Z,11.10
2018-04-12T17:08:34.908Z,11.00
2018-04-12T17:11:02.448Z,9.98
2018-04-12T17:13:30.469Z,10.18
2018-04-12T17:15:58.048Z,10.38
2018-04-12T17:18:26.391Z,9.90
2018-04-12T17:20:53.844Z,10.35
2018-04-12T17:23:21.624Z,9.98
2018-04-12T17:25:49.085Z,11.07
2018-04-12T17:28:16.543Z,10.32
2018-04-12T17:30:44.004Z,10.00
2018-04-12T17:33:12.223Z,11.02
2018-04-12T17:35:39.685Z,9.68
2018-04-12T17:38:07.138Z,9.20
2018-04-12T17:40:34.602Z,11.00
2018-04-12T17:43:02.052Z,10.20
2018-04-12T17:45:29.514Z,10.70
2018-04-12T17:47:56.990Z,10.30
2018-04-12T17:50:24.445Z,10.80
2018-04-12T17:52:52.017Z,10.60
2018-04-12T17:55:19.471Z,9.63
2018-04-12T17:57:46.936Z,10.17
2018-04-12T18:00:14.609Z,10.83
2018-04-12T18:02:42.306Z,10.60
2018-04-12T18:05:09.762Z,9.67
2018-04-12T18:07:37.230Z,9.70
2018-04-12T18:10:04.696Z,10.40
2018-04-12T18:12:32.188Z,11.10
2018-04-12T18:14:59.877Z,11.43
2018-04-12T18:17:28.738Z,10.83
2018-04-12T18:19:57.174Z,9.83
2018-04-12T18:22:24.672Z,10.73
2018-04-12T18:24:52.124Z,10.07
2018-04-12T18:27:20.172Z,11.57
2018-04-12T18:29:47.656Z,9.77
2018-04-12T18:32:15.120Z,9.63
2018-04-12T18:34:42.682Z,12.40
2018-04-12T18:37:10.436Z,12.90
2018-04-12T18:39:37.898Z,12.67
2018-04-12T18:42:05.360Z,11.43
2018-04-12T18:44:32.834Z,11.57
2018-04-12T18:47:01.073Z,12.57
2018-04-12T18:49:29.532Z,11.50
2018-04-12T18:51:57.000Z,12.20
2018-04-12T18:54:24.496Z,12.03
2018-04-12T18:56:52.727Z,13.00
2018-04-12T18:59:20.475Z,11.43
2018-04-12T19:01:47.983Z,11.57
2018-04-12T19:04:15.457Z,10.00
2018-04-12T19:06:43.378Z,9.60
2018-04-12T19:09:11.568Z,8.20
2018-04-12T19:11:41.933Z,7.87
2018-04-12T19:14:10.331Z,8.00
2018-04-12T19:16:37.858Z,7.57
2018-04-12T19:19:05.316Z,6.77
2018-04-12T19:21:32.887Z,7.60
2018-04-12T19:24:01.809Z,6.67
2018-04-12T19:26:29.285Z,7.00
2018-04-12T19:28:57.567Z,6.23
2018-04-12T19:31:25.015Z,6.13
2018-04-12T19:33:52.498Z,5.73
2018-04-12T19:36:19.996Z,6.27
2018-04-12T19:38:48.016Z,6.60
2018-04-12T19:41:15.631Z,7.00
2018-04-12T19:43:43.149Z,7.20
2018-04-12T19:46:10.664Z,6.90
2018-04-12T19:48:38.432Z,6.20
2018-04-12T19:51:06.355Z,6.90
2018-04-12T19:53:34.267Z,7.17
2018-04-12T19:56:01.850Z,7.40
2018-04-12T19:58:29.300Z,6.80
2018-04-12T20:00:56.836Z,7.67
2018-04-12T20:03:24.320Z,7.43
2018-04-12T20:05:51.784Z,8.37
2018-04-12T20:08:19.340Z,7.80
2018-04-12T20:10:47.277Z,7.27
2018-04-12T20:13:15.186Z,7.20
2018-04-12T20:15:44.179Z,7.03
2018-04-12T20:18:11.628Z,6.77
2018-04-12T20:20:40.005Z,5.87
2018-04-12T20:23:07.568Z,6.23
2018-04-12T20:25:35.123Z,6.37
2018-04-12T20:28:02.606Z,6.03
2018-04-12T20:30:30.029Z,5.83
2018-04-12T20:32:58.075Z,5.50
2018-04-12T20:35:25.520Z,5.30
2018-04-12T20:37:53.612Z,5.20
2018-04-12T20:40:21.053Z,5.37
2018-04-12T20:42:49.426Z,4.80
2018-04-12T20:45:16.896Z,6.10
2018-04-12T20:47:44.454Z,5.97
2018-04-12T20:50:11.897Z,5.97
2018-04-12T20:52:39.374Z,6.27
2018-04-12T20:55:07.404Z,5.80
2018-04-12T20:57:36.477Z,6.23
2018-04-12T21:00:04.948Z,6.50
2018-04-12T21:02:32.393Z,7.17
2018-04-12T21:04:59.852Z,7.23
2018-04-12T21:07:27.312Z,7.43
2018-04-12T21:09:54.894Z,7.77
2018-04-12T21:12:22.332Z,8.33
2018-04-12T21:14:49.899Z,8.60
2018-04-12T21:17:18.175Z,9.10
2018-04-12T21:19:45.652Z,7.63
2018-04-12T21:22:13.375Z,8.57
2018-04-12T21:24:40.832Z,7.97
2018-04-12T21:27:08.299Z,7.47
2018-04-12T21:29:35.859Z,7.27
2018-04-12T21:32:03.742Z,7.23
2018-04-12T21:34:31.208Z,7.37
2018-04-12T21:36:58.680Z,7.20
2018-04-12T21:39:26.924Z,7.53
2018-04-12T21:41:54.371Z,7.40
2018-04-12T21:44:22.363Z,8.73
2018-04-12T21:46:50.619Z,8.07
2018-04-12T21:49:18.071Z,8.50
2018-04-12T21:51:45.514Z,8.50
2018-04-12T21:54:12.960Z,8.20
2018-04-12T21:56:40.421Z,8.33
2018-04-12T21:59:07.907Z,9.27
2018-04-12T22:01:35.466Z,8.20
2018-04-12T22:04:02.921Z,7.37
2018-04-12T22:06:30.376Z,7.90
2018-04-12T22:08:57.880Z,8.90
2018-04-12T22:11:26.588Z,9.43
2018-04-12T22:13:54.084Z,9.67
2018-04-12T22:16:21.535Z,10.80
2018-04-12T22:18:48.983Z,9.63
2018-04-12T22:21:16.853Z,8.60
2018-04-12T22:23:44.628Z,8.43
2018-04-12T22:26:12.076Z,9.90
2018-04-12T22:28:39.869Z,8.73
2018-04-12T22:31:07.308Z,9.40
2018-04-12T22:33:34.762Z,8.80
2018-04-12T22:36:02.473Z,10.13
2018-04-12T22:38:29.969Z,10.07
2018-04-12T22:40:57.855Z,11.60
2018-04-12T22:43:25.924Z,11.07
2018-04-12T22:45:53.637Z,11.93
2018-04-12T22:48:21.090Z,11.90
2018-04-12T22:50:48.576Z,10.73
2018-04-12T22:53:16.364Z,10.90
2018-04-12T22:55:43.832Z,10.80
2018-04-12T22:58:11.284Z,10.23
2018-04-12T23:00:38.743Z,10.47
2018-04-12T23:03:06.196Z,10.60
2018-04-12T23:05:33.885Z,11.17
2018-04-12T23:08:02.602Z,10.87
2018-04-12T23:10:30.060Z,11.10
2018-04-12T23:12:57.517Z,10.80
2018-04-12T23:15:24.971Z,11.10
2018-04-12T23:17:53.248Z,12.00
2018-04-12T23:20:20.724Z,12.50
2018-04-12T23:22:48.172Z,11.73
2018-04-12T23:25:15.625Z,12.20
2018-04-12T23:27:43.080Z,12.97
2018-04-12T23:30:10.948Z,11.53
2018-04-12T23:32:38.409Z,11.33
2018-04-12T23:35:05.855Z,11.37
2018-04-12T23:37:34.125Z,10.73
2018-04-12T23:40:01.883Z,10.63
2018-04-12T23:42:30.171Z,12.70
2018-04-12T23:44:57.612Z,11.73
2018-04-12T23:47:25.055Z,11.60
2018-04-12T23:49:53.672Z,12.33
2018-04-12T23:52:21.545Z,11.53
2018-04-12T23:54:49.000Z,13.50
2018-04-12T23:57:16.671Z,12.80
2018-04-12T23:59:44.147Z,12.20
